createdAt,value
2022-12-05T00:01:41.191Z,38.10
2022-12-05T00:03:47.975Z,40.72
2022-12-05T00:05:52.581Z,40.00
2022-12-05T00:07:57.156Z,37.67
2022-12-05T00:10:01.383Z,34.85
2022-12-05T00:12:07.560Z,35.40
2022-12-05T00:14:12.722Z,40.25
2022-12-05T00:16:19.069Z,39.47
2022-12-05T00:18:23.340Z,37.30
2022-12-05T00:20:29.098Z,40.60
2022-12-05T00:22:33.342Z,41.95
2022-12-05T00:24:37.712Z,46.65
2022-12-05T00:26:42.262Z,38.08
2022-12-05T00:28:46.811Z,43.72
2022-12-05T00:30:51.321Z,43.80
2022-12-05T00:32:55.662Z,53.40
2022-12-05T00:34:59.960Z,46.80
2022-12-05T00:37:05.759Z,49.58
2022-12-05T00:39:12.237Z,51.30
2022-12-05T00:41:18.559Z,46.40
2022-12-05T00:43:23.580Z,50.92
2022-12-05T00:45:28.165Z,52.28
2022-12-05T00:47:35.613Z,56.35
2022-12-05T00:49:40.058Z,46.58
2022-12-05T00:51:45.222Z,52.10
2022-12-05T00:53:51.141Z,48.05
2022-12-05T00:55:55.390Z,44.88
2022-12-05T00:57:59.641Z,54.90
2022-12-05T01:00:04.110Z,48.22
2022-12-05T01:02:08.712Z,49.03
2022-12-05T01:04:14.957Z,51.35
2022-12-05T01:06:19.578Z,51.42
2022-12-05T01:08:23.807Z,53.10
2022-12-05T01:10:29.344Z,54.22
2022-12-05T01:12:33.599Z,53.10
2022-12-05T01:14:37.859Z,54.40
2022-12-05T01:16:44.430Z,51.05
2022-12-05T01:18:48.866Z,54.22
2022-12-05T01:20:54.004Z,47.05
2022-12-05T01:22:58.221Z,42.75
2022-12-05T01:25:22.367Z,48.45
2022-12-05T01:27:28.086Z,42.35
2022-12-05T01:29:32.553Z,40.60
2022-12-05T01:31:38.573Z,38.05
2022-12-05T01:33:42.928Z,39.38
2022-12-05T01:35:47.347Z,47.63
2022-12-05T01:37:52.419Z,38.78
2022-12-05T01:39:57.002Z,45.72
2022-12-05T01:42:03.605Z,47.03
2022-12-05T01:44:29.998Z,39.08
2022-12-05T01:46:36.473Z,39.47
2022-12-05T01:48:40.890Z,38.72
2022-12-05T01:50:45.529Z,39.53
2022-12-05T01:52:49.824Z,44.20
2022-12-05T01:55:03.272Z,47.65
2022-12-05T01:57:11.862Z,41.38
2022-12-05T01:59:19.674Z,44.70
2022-12-05T02:01:24.118Z,46.05
2022-12-05T02:03:28.605Z,49.55
2022-12-05T02:05:34.723Z,48.10
2022-12-05T02:07:43.541Z,42.67
2022-12-05T02:09:51.072Z,41.15
2022-12-05T02:11:57.608Z,44.67
2022-12-05T02:14:24.249Z,44.17
2022-12-05T02:16:45.930Z,42.03
2022-12-05T02:19:06.178Z,44.97
2022-12-05T02:21:36.948Z,37.55
2022-12-05T02:24:04.259Z,42.78
2022-12-05T02:26:46.012Z,42.47
2022-12-05T02:29:11.098Z,37.03
2022-12-05T02:31:21.998Z,47.13
2022-12-05T02:33:36.162Z,48.13
2022-12-05T02:35:49.294Z,41.60
2022-12-05T02:38:00.894Z,44.70
2022-12-05T02:40:12.371Z,46.53
2022-12-05T02:42:23.224Z,50.13
2022-12-05T02:44:33.381Z,50.95
2022-12-05T02:46:42.230Z,45.47
2022-12-05T02:48:51.563Z,44.78
2022-12-05T02:51:00.142Z,46.92
2022-12-05T02:53:09.717Z,48.85
2022-12-05T02:55:15.788Z,50.63
2022-12-05T02:57:22.147Z,56.33
2022-12-05T02:59:26.334Z,49.42
2022-12-05T03:01:32.988Z,51.47
2022-12-05T03:03:38.847Z,46.42
2022-12-05T03:05:48.394Z,52.00
2022-12-05T03:07:56.011Z,51.83
2022-12-05T03:10:03.899Z,46.90
2022-12-05T03:12:13.830Z,54.25
2022-12-05T03:14:22.940Z,53.53
2022-12-05T03:16:32.767Z,57.10
2022-12-05T03:18:42.014Z,59.78
2022-12-05T03:20:50.467Z,55.90
2022-12-05T03:22:59.652Z,53.28
2022-12-05T03:25:05.248Z,53.92
2022-12-05T03:27:17.292Z,54.60
2022-12-05T03:29:33.693Z,52.45
2022-12-05T03:31:43.938Z,51.80
2022-12-05T03:33:52.247Z,55.13
2022-12-05T03:36:03.811Z,52.85
2022-12-05T03:38:13.865Z,57.08
2022-12-05T03:40:33.780Z,50.58
2022-12-05T03:42:44.039Z,46.10
2022-12-05T03:44:54.278Z,52.30
2022-12-05T03:47:02.504Z,50.67
2022-12-05T03:49:13.200Z,49.65
2022-12-05T03:51:22.088Z,47.38
2022-12-05T03:53:30.202Z,49.23
2022-12-05T03:55:37.301Z,46.55
2022-12-05T03:57:48.426Z,47.95
2022-12-05T03:59:58.085Z,52.25
2022-12-05T04:02:08.594Z,60.92
2022-12-05T04:04:18.515Z,32.50
2022-12-05T04:06:28.942Z,41.30
2022-12-05T04:08:38.695Z,38.45
2022-12-05T04:10:50.254Z,41.28
2022-12-05T04:12:57.469Z,45.00
2022-12-05T04:15:06.302Z,50.75
2022-12-05T04:17:16.564Z,49.55
2022-12-05T04:19:26.629Z,42.50
2022-12-05T04:23:47.647Z,53.03
2022-12-05T04:26:00.189Z,49.17
2022-12-05T04:28:22.215Z,44.10
2022-12-05T04:30:27.961Z,38.42
2022-12-05T04:32:38.737Z,49.08
2022-12-05T04:34:52.164Z,42.83
2022-12-05T04:37:01.068Z,48.13
2022-12-05T04:39:10.708Z,53.10
2022-12-05T04:41:23.821Z,60.00
2022-12-05T04:43:30.256Z,47.97
2022-12-05T04:45:36.654Z,42.97
2022-12-05T04:47:45.216Z,39.75
2022-12-05T04:49:53.825Z,52.67
2022-12-05T04:52:02.294Z,42.03
2022-12-05T04:54:14.762Z,44.47
2022-12-05T04:56:21.800Z,43.25
2022-12-05T04:58:27.957Z,46.70
2022-12-05T05:00:36.371Z,47.42
2022-12-05T05:02:46.363Z,47.53
2022-12-05T05:07:00.505Z,59.83
2022-12-05T05:09:05.836Z,49.90
2022-12-05T05:11:15.127Z,49.15
2022-12-05T05:13:19.338Z,46.95
2022-12-05T05:15:23.695Z,50.63
2022-12-05T05:17:27.793Z,66.55
2022-12-05T05:19:32.277Z,43.15
2022-12-05T05:21:39.900Z,48.85
2022-12-05T05:23:44.310Z,41.05
2022-12-05T05:25:54.009Z,43.60
2022-12-05T05:27:58.564Z,36.30
2022-12-05T05:30:02.682Z,40.15
2022-12-05T05:32:07.183Z,44.40
2022-12-05T05:34:11.915Z,41.88
2022-12-05T05:36:17.837Z,48.00
2022-12-05T05:38:23.519Z,46.22
2022-12-05T05:40:27.766Z,62.58
2022-12-05T05:42:31.899Z,52.70
2022-12-05T05:44:36.168Z,51.22
2022-12-05T05:46:40.502Z,54.90
2022-12-05T05:48:44.895Z,55.38
2022-12-05T05:50:49.322Z,59.83
2022-12-05T05:52:53.747Z,60.33
2022-12-05T05:54:59.595Z,56.92
2022-12-05T05:57:04.705Z,53.08
2022-12-05T05:59:08.910Z,49.00
2022-12-05T06:01:15.390Z,44.60
2022-12-05T06:03:19.741Z,44.10
2022-12-05T06:05:24.168Z,46.42
2022-12-05T06:07:29.070Z,44.15
2022-12-05T06:09:33.660Z,45.55
2022-12-05T06:11:39.355Z,40.05
2022-12-05T06:13:43.963Z,41.35
2022-12-05T06:15:48.168Z,41.20
2022-12-05T06:17:52.667Z,43.22
2022-12-05T06:19:57.204Z,44.85
2022-12-05T06:22:01.712Z,48.35
2022-12-05T06:24:06.524Z,64.72
2022-12-05T06:26:13.034Z,49.75
2022-12-05T06:28:21.928Z,60.35
2022-12-05T06:30:26.269Z,55.03
2022-12-05T06:32:30.893Z,56.20
2022-12-05T06:34:36.272Z,59.35
2022-12-05T06:36:40.743Z,46.72
2022-12-05T06:38:45.435Z,51.08
2022-12-05T06:40:49.548Z,43.70
2022-12-05T06:42:55.067Z,46.88
2022-12-05T06:45:01.158Z,46.33
2022-12-05T06:47:07.808Z,45.38
2022-12-05T06:49:12.553Z,51.13
2022-12-05T06:51:18.594Z,46.20
2022-12-05T06:53:22.744Z,43.42
2022-12-05T06:55:27.237Z,49.15
2022-12-05T06:57:31.275Z,50.05
2022-12-05T06:59:35.340Z,38.45
2022-12-05T07:01:41.212Z,55.17
2022-12-05T07:03:45.710Z,45.90
2022-12-05T07:05:49.877Z,40.50
2022-12-05T07:07:54.550Z,44.13
2022-12-05T07:09:59.131Z,44.00
2022-12-05T07:12:03.537Z,41.33
2022-12-05T07:14:19.139Z,37.17
2022-12-05T07:16:29.395Z,44.08
2022-12-05T07:18:34.965Z,39.75
2022-12-05T07:21:03.997Z,41.17
2022-12-05T07:23:03.774Z,40.20
2022-12-05T07:25:08.800Z,45.35
2022-12-05T07:27:13.293Z,36.05
2022-12-05T07:29:17.635Z,43.45
2022-12-05T07:31:24.089Z,45.42
2022-12-05T07:33:28.322Z,38.22
2022-12-05T07:35:34.675Z,46.42
2022-12-05T07:37:40.372Z,49.50
2022-12-05T07:39:44.911Z,45.88
2022-12-05T07:41:49.496Z,45.42
2022-12-05T07:43:56.014Z,42.00
2022-12-05T07:46:04.538Z,38.13
2022-12-05T07:48:08.868Z,33.78
2022-12-05T07:50:13.675Z,33.42
2022-12-05T07:52:21.818Z,33.63
2022-12-05T07:54:26.044Z,29.60
2022-12-05T07:56:30.333Z,26.42
2022-12-05T07:58:35.450Z,31.23
2022-12-05T08:00:39.670Z,30.73
2022-12-05T08:02:44.054Z,27.67
2022-12-05T08:04:48.306Z,30.48
2022-12-05T08:06:52.425Z,27.77
2022-12-05T08:08:58.595Z,28.33
2022-12-05T08:11:05.876Z,26.42
2022-12-05T08:13:09.941Z,25.52
2022-12-05T08:15:14.013Z,32.10
2022-12-05T08:17:18.883Z,24.33
2022-12-05T08:19:22.944Z,25.75
2022-12-05T08:21:27.202Z,24.05
2022-12-05T08:23:32.557Z,29.75
2022-12-05T08:25:38.037Z,27.77
2022-12-05T08:27:42.088Z,29.63
2022-12-05T08:29:46.234Z,34.78
2022-12-05T08:31:53.129Z,29.42
2022-12-05T08:33:59.529Z,29.50
2022-12-05T08:36:05.010Z,27.15
2022-12-05T08:38:09.142Z,34.38
2022-12-05T08:40:13.981Z,28.92
2022-12-05T08:42:19.433Z,28.02
2022-12-05T08:44:23.714Z,30.63
2022-12-05T08:46:27.884Z,36.75
2022-12-05T08:48:32.999Z,34.80
2022-12-05T08:50:40.613Z,36.70
2022-12-05T08:52:44.642Z,32.53
2022-12-05T08:54:48.667Z,30.95
2022-12-05T08:56:53.251Z,35.40
2022-12-05T08:59:04.738Z,30.35
2022-12-05T09:01:12.272Z,32.63
2022-12-05T09:03:16.996Z,28.27
2022-12-05T09:05:28.472Z,31.63
2022-12-05T09:07:33.462Z,31.55
2022-12-05T09:09:37.741Z,40.15
2022-12-05T09:11:46.868Z,36.40
2022-12-05T09:13:52.485Z,38.55
2022-12-05T09:15:58.366Z,34.33
2022-12-05T09:18:02.514Z,33.67
2022-12-05T09:20:08.938Z,30.13
2022-12-05T09:22:13.142Z,34.17
2022-12-05T09:24:17.382Z,35.88
2022-12-05T09:26:25.168Z,35.58
2022-12-05T09:28:29.576Z,35.25
2022-12-05T09:30:33.722Z,37.33
2022-12-05T09:32:39.156Z,37.17
2022-12-05T09:34:43.383Z,36.92
2022-12-05T09:36:55.859Z,36.38
2022-12-05T09:39:08.310Z,38.08
2022-12-05T09:41:47.952Z,30.85
2022-12-05T09:43:59.224Z,31.75
2022-12-05T09:46:10.936Z,35.20
2022-12-05T09:48:21.025Z,34.50
2022-12-05T09:52:32.818Z,38.42
2022-12-05T09:54:36.882Z,36.95
2022-12-05T09:56:51.726Z,30.98
2022-12-05T09:58:57.878Z,35.22
2022-12-05T10:01:09.867Z,36.40
2022-12-05T10:03:27.224Z,34.45
2022-12-05T10:05:41.831Z,36.45
2022-12-05T10:07:53.622Z,47.33
2022-12-05T10:10:08.900Z,40.35
2022-12-05T10:12:24.307Z,37.05
2022-12-05T10:14:42.841Z,36.33
2022-12-05T10:16:50.876Z,34.95
2022-12-05T10:19:01.232Z,36.80
2022-12-05T10:21:13.581Z,35.00
2022-12-05T10:23:41.543Z,35.38
2022-12-05T10:25:46.986Z,36.22
2022-12-05T10:27:53.123Z,31.50
2022-12-05T10:30:02.532Z,28.77
2022-12-05T10:32:14.383Z,36.88
2022-12-05T10:34:29.553Z,34.80
2022-12-05T10:36:33.857Z,34.50
2022-12-05T10:38:38.978Z,32.22
2022-12-05T10:40:45.971Z,27.83
2022-12-05T10:42:51.495Z,31.10
2022-12-05T10:44:59.841Z,35.28
2022-12-05T10:47:04.216Z,33.17
2022-12-05T10:49:12.831Z,30.92
2022-12-05T10:51:22.210Z,34.70
2022-12-05T10:53:29.165Z,31.73
2022-12-05T10:55:37.504Z,30.45
2022-12-05T10:57:41.562Z,32.45
2022-12-05T10:59:48.273Z,29.60
2022-12-05T11:01:56.959Z,29.58
2022-12-05T11:04:13.846Z,34.63
2022-12-05T11:06:25.407Z,29.65
2022-12-05T11:09:02.365Z,27.85
2022-12-05T11:11:06.844Z,28.70
2022-12-05T11:13:17.284Z,35.53
2022-12-05T11:15:25.605Z,32.53
2022-12-05T11:17:34.077Z,34.08
2022-12-05T11:19:39.465Z,29.17
2022-12-05T11:21:45.607Z,31.45
2022-12-05T11:23:50.308Z,34.20
2022-12-05T11:25:54.922Z,36.47
2022-12-05T11:28:01.586Z,25.83
2022-12-05T11:30:18.952Z,27.80
2022-12-05T11:32:25.517Z,28.58
2022-12-05T11:34:37.493Z,30.05
2022-12-05T11:36:47.829Z,31.92
2022-12-05T11:39:00.146Z,32.47
2022-12-05T11:41:31.099Z,33.03
2022-12-05T11:44:17.601Z,33.65
2022-12-05T11:46:29.348Z,31.80
2022-12-05T11:48:51.005Z,28.15
2022-12-05T11:51:27.014Z,31.25
2022-12-05T11:53:50.601Z,29.67
2022-12-05T11:56:03.228Z,28.13
2022-12-05T11:58:35.095Z,28.38
2022-12-05T12:00:52.352Z,34.78
2022-12-05T12:03:27.276Z,31.20
2022-12-05T12:05:38.826Z,32.25
2022-12-05T12:07:58.285Z,32.40
2022-12-05T12:10:12.952Z,30.02
2022-12-05T12:12:25.683Z,37.45
2022-12-05T12:14:37.479Z,31.85
2022-12-05T12:16:50.280Z,31.88
2022-12-05T12:19:19.873Z,35.17
2022-12-05T12:21:36.899Z,30.40
2022-12-05T12:24:03.801Z,28.73
2022-12-05T12:26:14.475Z,35.35
2022-12-05T12:28:32.314Z,47.00
2022-12-05T12:30:53.083Z,41.60
2022-12-05T12:33:05.013Z,31.83
2022-12-05T12:35:31.101Z,48.80
2022-12-05T12:37:48.829Z,36.17
2022-12-05T12:39:58.882Z,36.63
2022-12-05T12:44:40.754Z,40.80
2022-12-05T12:46:50.756Z,42.05
2022-12-05T12:51:15.624Z,44.58
2022-12-05T12:53:55.816Z,38.53
2022-12-05T12:56:06.619Z,32.10
2022-12-05T12:58:22.203Z,36.90
2022-12-05T13:00:37.617Z,39.38
2022-12-05T13:02:47.619Z,32.33
2022-12-05T13:04:58.432Z,27.85
2022-12-05T13:07:09.485Z,35.20
2022-12-05T13:09:21.798Z,35.33
2022-12-05T13:11:27.863Z,36.88
2022-12-05T13:13:37.866Z,37.25
2022-12-05T13:15:47.280Z,38.50
2022-12-05T13:17:52.658Z,37.47
2022-12-05T13:19:57.742Z,35.08
2022-12-05T13:22:02.569Z,31.33
2022-12-05T13:24:07.877Z,36.83
2022-12-05T13:26:13.929Z,31.75
2022-12-05T13:28:27.876Z,34.75
2022-12-05T13:30:54.237Z,36.92
2022-12-05T13:33:00.652Z,35.13
2022-12-05T13:35:11.457Z,35.33
2022-12-05T13:37:39.750Z,35.58
2022-12-05T13:40:09.291Z,41.90
2022-12-05T13:42:24.500Z,31.25
2022-12-05T13:44:34.444Z,30.27
2022-12-05T13:48:48.318Z,35.60
2022-12-05T13:50:56.285Z,33.88
2022-12-05T13:53:02.777Z,35.35
2022-12-05T13:55:21.517Z,36.85
2022-12-05T13:57:47.957Z,38.17
2022-12-05T14:00:05.908Z,43.22
2022-12-05T14:02:55.281Z,37.58
2022-12-05T14:04:59.566Z,31.38
2022-12-05T14:07:03.578Z,34.28
2022-12-05T14:09:30.924Z,30.35
2022-12-05T14:11:35.143Z,34.33
2022-12-05T14:13:45.208Z,32.65
2022-12-05T14:15:50.478Z,36.78
2022-12-05T14:18:01.837Z,34.47
2022-12-05T14:20:23.749Z,31.77
2022-12-05T14:22:54.907Z,30.02
2022-12-05T14:25:07.390Z,31.67
2022-12-05T14:27:18.047Z,29.65
2022-12-05T14:29:40.710Z,37.78
2022-12-05T14:31:58.403Z,30.90
2022-12-05T14:34:24.934Z,34.90
2022-12-05T14:36:31.715Z,30.40
2022-12-05T14:38:38.782Z,36.60
2022-12-05T14:40:45.780Z,33.83
2022-12-05T14:42:55.544Z,69.15
2022-12-05T14:45:03.124Z,73.95
2022-12-05T14:47:19.201Z,56.40
2022-12-05T14:49:51.446Z,37.58
2022-12-05T14:51:59.536Z,43.42
2022-12-05T14:54:07.379Z,38.20
2022-12-05T14:56:23.584Z,39.15
2022-12-05T14:58:35.329Z,36.58
2022-12-05T15:00:43.751Z,37.08
2022-12-05T15:02:57.806Z,32.38
2022-12-05T15:05:16.469Z,30.13
2022-12-05T15:07:22.179Z,33.88
2022-12-05T15:09:46.913Z,37.03
2022-12-05T15:11:51.811Z,36.47
2022-12-05T15:14:01.816Z,35.20
2022-12-05T15:16:13.479Z,31.38
2022-12-05T15:18:24.427Z,37.28
2022-12-05T15:20:40.886Z,33.17
2022-12-05T15:22:46.437Z,40.10
2022-12-05T15:24:50.488Z,33.67
2022-12-05T15:26:57.252Z,47.10
2022-12-05T15:29:04.141Z,44.25
2022-12-05T15:31:13.046Z,41.63
2022-12-05T15:33:17.196Z,44.33
2022-12-05T15:35:23.473Z,32.97
2022-12-05T15:37:35.498Z,33.10
2022-12-05T15:39:53.480Z,32.00
2022-12-05T15:41:58.663Z,31.88
2022-12-05T15:44:06.642Z,33.10
2022-12-05T15:46:24.002Z,30.08
2022-12-05T15:48:28.327Z,30.67
2022-12-05T15:50:34.882Z,30.40
2022-12-05T15:52:45.510Z,28.70
2022-12-05T15:54:49.973Z,27.35
2022-12-05T15:57:01.258Z,31.02
2022-12-05T15:59:13.955Z,28.35
2022-12-05T16:01:21.713Z,28.25
2022-12-05T16:03:36.833Z,27.65
2022-12-05T16:05:48.038Z,28.45
2022-12-05T16:07:54.449Z,26.67
2022-12-05T16:10:01.746Z,26.92
2022-12-05T16:12:16.849Z,29.23
2022-12-05T16:14:51.269Z,35.30
2022-12-05T16:16:47.393Z,27.88
2022-12-05T16:18:54.366Z,31.27
2022-12-05T16:20:58.910Z,28.45
2022-12-05T16:23:07.285Z,31.30
2022-12-05T16:25:16.522Z,30.98
2022-12-05T16:27:24.636Z,30.90
2022-12-05T16:29:29.920Z,30.42
2022-12-05T16:31:34.965Z,32.13
2022-12-05T16:33:43.517Z,30.77
2022-12-05T16:35:50.310Z,29.03
2022-12-05T16:38:15.705Z,30.05
2022-12-05T16:40:23.371Z,41.72
2022-12-05T16:42:28.535Z,36.33
2022-12-05T16:45:03.686Z,34.00
2022-12-05T16:47:23.580Z,45.60
2022-12-05T16:49:36.422Z,52.65
2022-12-05T16:51:45.548Z,41.90
2022-12-05T16:53:52.646Z,33.92
2022-12-05T16:56:00.596Z,42.83
2022-12-05T16:58:05.393Z,37.33
2022-12-05T17:00:15.692Z,35.63
2022-12-05T17:02:20.409Z,38.42
2022-12-05T17:04:24.593Z,36.45
2022-12-05T17:06:29.608Z,34.28
2022-12-05T17:08:33.683Z,35.75
2022-12-05T17:10:39.641Z,36.15
2022-12-05T17:12:47.793Z,36.92
2022-12-05T17:14:52.101Z,34.88
2022-12-05T17:16:56.176Z,37.20
2022-12-05T17:19:00.286Z,38.30
2022-12-05T17:21:04.510Z,33.10
2022-12-05T17:23:11.979Z,36.22
2022-12-05T17:25:22.277Z,34.13
2022-12-05T17:27:27.980Z,38.53
2022-12-05T17:29:35.827Z,37.50
2022-12-05T17:31:40.446Z,35.95
2022-12-05T17:33:45.056Z,37.40
2022-12-05T17:35:49.300Z,32.20
2022-12-05T17:37:53.496Z,34.78
2022-12-05T17:39:57.985Z,34.28
2022-12-05T17:42:02.426Z,32.33
2022-12-05T17:44:09.163Z,33.15
2022-12-05T17:46:16.980Z,37.05
2022-12-05T17:48:21.914Z,33.67
2022-12-05T17:50:27.628Z,35.60
2022-12-05T17:52:32.296Z,35.75
2022-12-05T17:54:38.989Z,36.55
2022-12-05T17:56:43.139Z,34.40
2022-12-05T17:58:47.420Z,33.58
2022-12-05T18:00:52.977Z,36.90
2022-12-05T18:02:57.493Z,33.97
2022-12-05T18:05:01.620Z,39.47
2022-12-05T18:07:07.159Z,36.67
2022-12-05T18:09:11.447Z,34.13
2022-12-05T18:11:16.363Z,32.33
2022-12-05T18:13:20.824Z,36.00
2022-12-05T18:15:28.326Z,58.75
2022-12-05T18:17:33.765Z,43.00
2022-12-05T18:19:37.997Z,34.35
2022-12-05T18:21:42.183Z,34.38
2022-12-05T18:23:46.303Z,35.50
2022-12-05T18:25:59.521Z,34.10
2022-12-05T18:28:04.646Z,35.95
2022-12-05T18:30:09.682Z,33.05
2022-12-05T18:32:13.749Z,34.95
2022-12-05T18:34:19.286Z,29.58
2022-12-05T18:36:23.513Z,30.08
2022-12-05T18:38:27.661Z,30.80
2022-12-05T18:40:31.685Z,27.15
2022-12-05T18:42:37.356Z,31.40
2022-12-05T18:44:41.423Z,29.02
2022-12-05T18:46:45.690Z,26.42
2022-12-05T18:48:50.000Z,28.63
2022-12-05T18:50:55.511Z,27.30
2022-12-05T18:52:59.619Z,27.65
2022-12-05T18:55:16.702Z,31.80
2022-12-05T18:57:21.241Z,30.13
2022-12-05T18:59:25.804Z,26.75
2022-12-05T19:01:30.869Z,27.17
2022-12-05T19:03:35.308Z,30.30
2022-12-05T19:05:39.328Z,29.50
2022-12-05T19:07:46.579Z,30.75
2022-12-05T19:09:50.709Z,36.75
2022-12-05T19:11:57.032Z,39.97
2022-12-05T19:14:02.624Z,35.95
2022-12-05T19:16:09.382Z,37.10
2022-12-05T19:18:13.483Z,31.70
2022-12-05T19:20:18.650Z,35.75
2022-12-05T19:22:23.860Z,30.65
2022-12-05T19:24:29.501Z,34.60
2022-12-05T19:26:33.971Z,32.97
2022-12-05T19:28:38.931Z,43.75
2022-12-05T19:30:43.184Z,32.33
2022-12-05T19:32:47.331Z,30.77
2022-12-05T19:34:51.503Z,37.28
2022-12-05T19:36:56.325Z,32.95
2022-12-05T19:39:00.683Z,39.15
2022-12-05T19:41:07.627Z,30.95
2022-12-05T19:43:11.629Z,44.70
2022-12-05T19:45:18.156Z,40.95
2022-12-05T19:47:23.650Z,60.35
2022-12-05T19:49:27.811Z,35.17
2022-12-05T19:51:32.876Z,33.08
2022-12-05T19:53:39.308Z,37.33
2022-12-05T19:55:43.431Z,31.55
2022-12-05T19:57:48.917Z,30.42
2022-12-05T19:59:53.039Z,29.20
2022-12-05T20:01:57.220Z,33.72
2022-12-05T20:04:03.046Z,30.85
2022-12-05T20:06:08.664Z,48.00
2022-12-05T20:08:12.800Z,41.92
2022-12-05T20:10:17.055Z,39.50
2022-12-05T20:12:21.670Z,36.00
2022-12-05T20:14:27.699Z,37.00
2022-12-05T20:16:33.706Z,36.38
2022-12-05T20:18:40.035Z,54.65
2022-12-05T20:20:44.320Z,37.38
2022-12-05T20:22:49.095Z,45.25
2022-12-05T20:24:53.256Z,40.85
2022-12-05T20:26:57.436Z,39.88
2022-12-05T20:29:02.767Z,35.78
2022-12-05T20:31:10.122Z,37.75
2022-12-05T20:33:14.204Z,38.10
2022-12-05T20:35:23.993Z,37.88
2022-12-05T20:37:31.155Z,38.38
2022-12-05T20:39:38.211Z,40.08
2022-12-05T20:41:42.360Z,35.88
2022-12-05T20:43:48.097Z,41.88
2022-12-05T20:45:52.204Z,38.28
2022-12-05T20:47:58.842Z,37.50
2022-12-05T20:50:03.125Z,40.05
2022-12-05T20:52:07.874Z,35.47
2022-12-05T20:54:13.783Z,37.33
2022-12-05T20:56:20.000Z,37.40
2022-12-05T20:58:24.134Z,39.97
2022-12-05T21:00:28.227Z,38.70
2022-12-05T21:02:32.373Z,44.80
2022-12-05T21:04:40.994Z,44.38
2022-12-05T21:06:46.650Z,41.47
2022-12-05T21:08:52.065Z,41.75
2022-12-05T21:10:56.169Z,48.28
2022-12-05T21:13:00.364Z,44.90
2022-12-05T21:15:05.026Z,47.45
2022-12-05T21:17:13.841Z,43.65
2022-12-05T21:19:19.036Z,48.00
2022-12-05T21:21:26.992Z,42.80
2022-12-05T21:23:31.312Z,45.25
2022-12-05T21:25:35.553Z,46.00
2022-12-05T21:27:39.607Z,43.20
2022-12-05T21:29:44.702Z,55.15
2022-12-05T21:31:51.651Z,50.88
2022-12-05T21:33:57.420Z,49.70
2022-12-05T21:36:01.506Z,50.97
2022-12-05T21:38:07.078Z,58.42
2022-12-05T21:40:11.839Z,49.35
2022-12-05T21:42:16.996Z,55.50
2022-12-05T21:44:21.335Z,46.13
2022-12-05T21:46:26.277Z,47.35
2022-12-05T21:48:30.627Z,48.88
2022-12-05T21:50:39.183Z,47.78
2022-12-05T21:52:43.219Z,41.72
2022-12-05T21:54:49.518Z,48.22
2022-12-05T21:56:53.575Z,48.15
2022-12-05T21:58:57.744Z,49.67
2022-12-05T22:01:01.938Z,45.53
2022-12-05T22:03:06.944Z,50.92
2022-12-05T22:05:11.247Z,52.92
2022-12-05T22:07:15.797Z,54.00
2022-12-05T22:09:19.870Z,55.00
2022-12-05T22:11:26.018Z,48.50
2022-12-05T22:13:30.075Z,54.30
2022-12-05T22:15:34.406Z,49.00
2022-12-05T22:17:38.573Z,60.15
2022-12-05T22:19:42.638Z,47.72
2022-12-05T22:21:46.688Z,50.38
2022-12-05T22:23:51.683Z,53.88
2022-12-05T22:26:00.352Z,52.05
2022-12-05T22:28:06.053Z,57.97
2022-12-05T22:30:10.886Z,50.85
2022-12-05T22:32:14.985Z,49.88
2022-12-05T22:34:19.043Z,55.03
2022-12-05T22:36:24.340Z,51.78
2022-12-05T22:38:30.946Z,53.55
2022-12-05T22:40:37.705Z,48.45
2022-12-05T22:42:41.788Z,46.85
2022-12-05T22:44:47.271Z,51.15
2022-12-05T22:46:51.383Z,48.88
2022-12-05T22:48:56.129Z,48.78
2022-12-05T22:51:01.261Z,52.92
2022-12-05T22:53:05.351Z,49.65
2022-12-05T22:55:10.337Z,73.70
2022-12-05T22:57:14.452Z,52.78
2022-12-05T22:59:18.569Z,51.00
2022-12-05T23:01:25.432Z,51.28
2022-12-05T23:03:29.509Z,48.03
2022-12-05T23:05:33.701Z,48.60
2022-12-05T23:07:37.881Z,50.20
2022-12-05T23:09:41.965Z,46.15
2022-12-05T23:11:46.009Z,51.10
2022-12-05T23:13:50.805Z,45.17
2022-12-05T23:15:55.131Z,47.90
2022-12-05T23:18:00.663Z,40.28
2022-12-05T23:20:05.661Z,46.50
2022-12-05T23:22:09.751Z,50.65
2022-12-05T23:24:14.292Z,48.60
2022-12-05T23:26:19.937Z,45.67
2022-12-05T23:28:23.987Z,42.78
2022-12-05T23:30:28.073Z,50.38
2022-12-05T23:32:32.088Z,41.72
2022-12-05T23:34:37.701Z,49.47
2022-12-05T23:36:41.741Z,50.15
2022-12-05T23:38:45.880Z,42.50
2022-12-05T23:41:00.296Z,56.58
2022-12-05T23:43:04.335Z,42.65
2022-12-05T23:45:09.061Z,51.00
2022-12-05T23:47:13.215Z,58.05
2022-12-05T23:49:17.342Z,46.78
2022-12-05T23:51:24.424Z,52.17
2022-12-05T23:53:29.325Z,44.40
2022-12-05T23:55:35.237Z,43.28
2022-12-05T23:57:39.325Z,46.25
2022-12-05T23:59:43.591Z,46.42
